sensor_id;sensor_type;location;lat;lon;timestamp;temperature;humidity
23291;DHT22;11814;44.686;10.842;2023-03-02T00:01:56;4.80;99.90
23291;DHT22;11814;44.686;10.842;2023-03-02T00:04:32;4.80;99.90
23291;DHT22;11814;44.686;10.842;2023-03-02T00:07:03;4.80;99.90
23291;DHT22;11814;44.686;10.842;2023-03-02T00:09:30;4.80;99.90
23291;DHT22;11814;44.686;10.842;2023-03-02T00:11:56;4.80;99.90
23291;DHT22;11814;44.686;10.842;2023-03-02T00:14:22;4.90;99.90
23291;DHT22;11814;44.686;10.842;2023-03-02T00:16:48;4.80;99.90
23291;DHT22;11814;44.686;10.842;2023-03-02T00:19:14;4.90;99.90
23291;DHT22;11814;44.686;10.842;2023-03-02T00:21:39;4.90;99.90
23291;DHT22;11814;44.686;10.842;2023-03-02T00:24:06;4.90;99.90
23291;DHT22;11814;44.686;10.842;2023-03-02T00:26:33;4.90;99.90
23291;DHT22;11814;44.686;10.842;2023-03-02T00:28:59;5.00;99.90
23291;DHT22;11814;44.686;10.842;2023-03-02T00:31:25;5.00;99.90
23291;DHT22;11814;44.686;10.842;2023-03-02T00:33:51;5.00;99.90
23291;DHT22;11814;44.686;10.842;2023-03-02T00:36:20;5.00;99.90
23291;DHT22;11814;44.686;10.842;2023-03-02T00:38:47;5.00;99.90
23291;DHT22;11814;44.686;10.842;2023-03-02T00:41:14;5.00;99.90
23291;DHT22;11814;44.686;10.842;2023-03-02T00:43:41;5.00;99.90
23291;DHT22;11814;44.686;10.842;2023-03-02T00:46:12;5.00;99.90
23291;DHT22;11814;44.686;10.842;2023-03-02T00:48:38;5.00;99.90
23291;DHT22;11814;44.686;10.842;2023-03-02T00:51:05;5.00;99.90
23291;DHT22;11814;44.686;10.842;2023-03-02T00:53:32;5.00;99.90
23291;DHT22;11814;44.686;10.842;2023-03-02T00:55:59;5.10;99.90
23291;DHT22;11814;44.686;10.842;2023-03-02T00:58:26;5.00;99.90
23291;DHT22;11814;44.686;10.842;2023-03-02T01:00:52;5.00;99.90
23291;DHT22;11814;44.686;10.842;2023-03-02T01:03:18;5.10;99.90
23291;DHT22;11814;44.686;10.842;2023-03-02T01:05:44;5.00;99.90
23291;DHT22;11814;44.686;10.842;2023-03-02T01:08:10;5.10;99.90
23291;DHT22;11814;44.686;10.842;2023-03-02T01:10:36;5.10;99.90
23291;DHT22;11814;44.686;10.842;2023-03-02T01:13:03;5.10;99.90
23291;DHT22;11814;44.686;10.842;2023-03-02T01:15:30;5.10;99.90
23291;DHT22;11814;44.686;10.842;2023-03-02T01:17:58;5.10;99.90
23291;DHT22;11814;44.686;10.842;2023-03-02T01:20:24;5.10;99.90
23291;DHT22;11814;44.686;10.842;2023-03-02T01:22:49;5.10;99.90
23291;DHT22;11814;44.686;10.842;2023-03-02T01:25:15;5.00;99.90
23291;DHT22;11814;44.686;10.842;2023-03-02T01:27:41;5.10;99.90
23291;DHT22;11814;44.686;10.842;2023-03-02T01:30:07;5.00;99.90
23291;DHT22;11814;44.686;10.842;2023-03-02T01:32:34;5.00;99.90
23291;DHT22;11814;44.686;10.842;2023-03-02T01:34:59;5.00;99.90
23291;DHT22;11814;44.686;10.842;2023-03-02T01:37:25;5.00;99.90
23291;DHT22;11814;44.686;10.842;2023-03-02T01:39:52;5.00;99.90
23291;DHT22;11814;44.686;10.842;2023-03-02T01:42:17;5.00;99.90
23291;DHT22;11814;44.686;10.842;2023-03-02T01:44:51;5.00;99.90
23291;DHT22;11814;44.686;10.842;2023-03-02T01:47:34;4.90;99.90
23291;DHT22;11814;44.686;10.842;2023-03-02T01:50:17;5.00;99.90
23291;DHT22;11814;44.686;10.842;2023-03-02T01:52:44;5.00;99.90
23291;DHT22;11814;44.686;10.842;2023-03-02T01:55:12;5.00;99.90
23291;DHT22;11814;44.686;10.842;2023-03-02T01:57:43;5.00;99.90
23291;DHT22;11814;44.686;10.842;2023-03-02T02:00:14;5.10;99.90
23291;DHT22;11814;44.686;10.842;2023-03-02T02:02:41;5.10;99.90
23291;DHT22;11814;44.686;10.842;2023-03-02T02:05:14;5.00;99.90
23291;DHT22;11814;44.686;10.842;2023-03-02T02:07:41;5.00;99.90
23291;DHT22;11814;44.686;10.842;2023-03-02T02:10:08;5.10;99.90
23291;DHT22;11814;44.686;10.842;2023-03-02T02:12:34;5.10;99.90
23291;DHT22;11814;44.686;10.842;2023-03-02T02:15:00;5.10;99.90
23291;DHT22;11814;44.686;10.842;2023-03-02T02:17:30;5.10;99.90
23291;DHT22;11814;44.686;10.842;2023-03-02T02:20:27;5.10;99.90
23291;DHT22;11814;44.686;10.842;2023-03-02T02:28:35;5.10;99.90
23291;DHT22;11814;44.686;10.842;2023-03-02T02:31:16;5.10;99.90
23291;DHT22;11814;44.686;10.842;2023-03-02T02:33:46;5.10;99.90
23291;DHT22;11814;44.686;10.842;2023-03-02T02:36:20;5.10;99.90
23291;DHT22;11814;44.686;10.842;2023-03-02T02:38:49;5.10;99.90
23291;DHT22;11814;44.686;10.842;2023-03-02T02:41:28;5.10;99.90
23291;DHT22;11814;44.686;10.842;2023-03-02T02:43:55;5.10;99.90
23291;DHT22;11814;44.686;10.842;2023-03-02T02:46:22;5.00;99.90
23291;DHT22;11814;44.686;10.842;2023-03-02T02:48:49;5.10;99.90
23291;DHT22;11814;44.686;10.842;2023-03-02T02:51:22;5.10;99.90
23291;DHT22;11814;44.686;10.842;2023-03-02T02:53:56;5.10;99.90
23291;DHT22;11814;44.686;10.842;2023-03-02T02:56:33;5.10;99.90
23291;DHT22;11814;44.686;10.842;2023-03-02T02:59:05;5.20;99.90
23291;DHT22;11814;44.686;10.842;2023-03-02T03:01:32;5.20;99.90
23291;DHT22;11814;44.686;10.842;2023-03-02T03:04:01;5.20;99.90
23291;DHT22;11814;44.686;10.842;2023-03-02T03:06:30;5.20;99.90
23291;DHT22;11814;44.686;10.842;2023-03-02T03:09:04;5.20;99.90
23291;DHT22;11814;44.686;10.842;2023-03-02T03:11:34;5.20;99.90
23291;DHT22;11814;44.686;10.842;2023-03-02T03:14:04;5.20;99.90
23291;DHT22;11814;44.686;10.842;2023-03-02T03:16:33;5.20;99.90
23291;DHT22;11814;44.686;10.842;2023-03-02T03:19:09;5.20;99.90
23291;DHT22;11814;44.686;10.842;2023-03-02T03:21:36;5.20;99.90
23291;DHT22;11814;44.686;10.842;2023-03-02T03:24:02;5.20;99.90
23291;DHT22;11814;44.686;10.842;2023-03-02T03:26:27;5.20;99.90
23291;DHT22;11814;44.686;10.842;2023-03-02T03:28:53;5.20;99.90
23291;DHT22;11814;44.686;10.842;2023-03-02T03:31:23;5.20;99.90
23291;DHT22;11814;44.686;10.842;2023-03-02T03:33:49;5.20;99.90
23291;DHT22;11814;44.686;10.842;2023-03-02T03:36:14;5.20;99.90
23291;DHT22;11814;44.686;10.842;2023-03-02T03:38:41;5.20;99.90
23291;DHT22;11814;44.686;10.842;2023-03-02T03:41:07;5.20;99.90
23291;DHT22;11814;44.686;10.842;2023-03-02T03:43:32;5.20;99.90
23291;DHT22;11814;44.686;10.842;2023-03-02T03:45:58;5.20;99.90
23291;DHT22;11814;44.686;10.842;2023-03-02T03:48:24;5.20;99.90
23291;DHT22;11814;44.686;10.842;2023-03-02T03:50:50;5.20;99.90
23291;DHT22;11814;44.686;10.842;2023-03-02T03:53:15;5.20;99.90
23291;DHT22;11814;44.686;10.842;2023-03-02T03:55:41;5.20;99.90
23291;DHT22;11814;44.686;10.842;2023-03-02T03:58:07;5.20;99.90
23291;DHT22;11814;44.686;10.842;2023-03-02T04:00:33;5.10;99.90
23291;DHT22;11814;44.686;10.842;2023-03-02T04:02:59;5.10;99.90
23291;DHT22;11814;44.686;10.842;2023-03-02T04:05:24;5.10;99.90
23291;DHT22;11814;44.686;10.842;2023-03-02T04:07:51;5.10;99.90
23291;DHT22;11814;44.686;10.842;2023-03-02T04:10:16;5.20;99.90
23291;DHT22;11814;44.686;10.842;2023-03-02T04:12:42;5.20;99.90
23291;DHT22;11814;44.686;10.842;2023-03-02T04:15:13;5.20;99.90
23291;DHT22;11814;44.686;10.842;2023-03-02T04:17:39;5.20;99.90
23291;DHT22;11814;44.686;10.842;2023-03-02T04:20:05;5.20;99.90
23291;DHT22;11814;44.686;10.842;2023-03-02T04:22:34;5.20;99.90
23291;DHT22;11814;44.686;10.842;2023-03-02T04:25:00;5.20;99.90
23291;DHT22;11814;44.686;10.842;2023-03-02T04:27:26;5.20;99.90
23291;DHT22;11814;44.686;10.842;2023-03-02T04:29:52;5.30;99.90
23291;DHT22;11814;44.686;10.842;2023-03-02T04:32:18;5.30;99.90
23291;DHT22;11814;44.686;10.842;2023-03-02T04:34:44;5.20;99.90
23291;DHT22;11814;44.686;10.842;2023-03-02T04:37:10;5.30;99.90
23291;DHT22;11814;44.686;10.842;2023-03-02T04:39:36;5.30;99.90
23291;DHT22;11814;44.686;10.842;2023-03-02T04:42:01;5.30;99.90
23291;DHT22;11814;44.686;10.842;2023-03-02T04:44:27;5.30;99.90
23291;DHT22;11814;44.686;10.842;2023-03-02T04:46:53;5.30;99.90
23291;DHT22;11814;44.686;10.842;2023-03-02T04:49:19;5.30;99.90
23291;DHT22;11814;44.686;10.842;2023-03-02T04:51:47;5.30;99.90
23291;DHT22;11814;44.686;10.842;2023-03-02T04:54:16;5.30;99.90
23291;DHT22;11814;44.686;10.842;2023-03-02T04:56:42;5.30;99.90
23291;DHT22;11814;44.686;10.842;2023-03-02T04:59:08;5.30;99.90
23291;DHT22;11814;44.686;10.842;2023-03-02T05:01:34;5.30;99.90
23291;DHT22;11814;44.686;10.842;2023-03-02T05:04:00;5.30;99.90
23291;DHT22;11814;44.686;10.842;2023-03-02T05:06:25;5.30;99.90
23291;DHT22;11814;44.686;10.842;2023-03-02T05:08:52;5.40;99.90
23291;DHT22;11814;44.686;10.842;2023-03-02T05:11:18;5.40;99.90
23291;DHT22;11814;44.686;10.842;2023-03-02T05:13:57;5.40;99.90
23291;DHT22;11814;44.686;10.842;2023-03-02T05:16:24;5.30;99.90
23291;DHT22;11814;44.686;10.842;2023-03-02T05:18:50;5.30;99.90
23291;DHT22;11814;44.686;10.842;2023-03-02T05:21:17;5.40;99.90
23291;DHT22;11814;44.686;10.842;2023-03-02T05:23:43;5.30;99.90
23291;DHT22;11814;44.686;10.842;2023-03-02T05:26:09;5.30;99.90
23291;DHT22;11814;44.686;10.842;2023-03-02T05:28:35;5.40;99.90
23291;DHT22;11814;44.686;10.842;2023-03-02T05:31:01;5.30;99.90
23291;DHT22;11814;44.686;10.842;2023-03-02T05:33:28;5.30;99.90
23291;DHT22;11814;44.686;10.842;2023-03-02T05:35:53;5.30;99.90
23291;DHT22;11814;44.686;10.842;2023-03-02T05:38:19;5.40;99.90
23291;DHT22;11814;44.686;10.842;2023-03-02T05:40:46;5.40;99.90
23291;DHT22;11814;44.686;10.842;2023-03-02T05:43:15;5.40;99.90
23291;DHT22;11814;44.686;10.842;2023-03-02T05:45:42;5.40;99.90
23291;DHT22;11814;44.686;10.842;2023-03-02T05:48:09;5.40;99.90
23291;DHT22;11814;44.686;10.842;2023-03-02T05:50:35;5.50;99.90
23291;DHT22;11814;44.686;10.842;2023-03-02T05:53:00;5.50;99.90
23291;DHT22;11814;44.686;10.842;2023-03-02T05:55:27;5.50;99.90
23291;DHT22;11814;44.686;10.842;2023-03-02T05:57:53;5.50;99.90
23291;DHT22;11814;44.686;10.842;2023-03-02T06:00:19;5.40;99.90
23291;DHT22;11814;44.686;10.842;2023-03-02T06:02:45;5.50;99.90
23291;DHT22;11814;44.686;10.842;2023-03-02T06:05:14;5.50;99.90
23291;DHT22;11814;44.686;10.842;2023-03-02T06:07:41;5.50;99.90
23291;DHT22;11814;44.686;10.842;2023-03-02T06:10:08;5.50;99.90
23291;DHT22;11814;44.686;10.842;2023-03-02T06:12:35;5.50;99.90
23291;DHT22;11814;44.686;10.842;2023-03-02T06:15:01;5.60;99.90
23291;DHT22;11814;44.686;10.842;2023-03-02T06:17:27;5.60;99.90
23291;DHT22;11814;44.686;10.842;2023-03-02T06:19:53;5.60;99.90
23291;DHT22;11814;44.686;10.842;2023-03-02T06:22:19;5.60;99.90
23291;DHT22;11814;44.686;10.842;2023-03-02T06:24:44;5.60;99.90
23291;DHT22;11814;44.686;10.842;2023-03-02T06:27:12;5.60;99.90
23291;DHT22;11814;44.686;10.842;2023-03-02T06:29:38;5.60;99.90
23291;DHT22;11814;44.686;10.842;2023-03-02T06:32:04;5.60;99.90
23291;DHT22;11814;44.686;10.842;2023-03-02T06:34:29;5.60;99.90
23291;DHT22;11814;44.686;10.842;2023-03-02T06:36:55;5.70;99.90
23291;DHT22;11814;44.686;10.842;2023-03-02T06:39:21;5.70;99.90
23291;DHT22;11814;44.686;10.842;2023-03-02T06:41:47;5.70;99.90
23291;DHT22;11814;44.686;10.842;2023-03-02T06:44:15;5.70;99.90
23291;DHT22;11814;44.686;10.842;2023-03-02T06:46:41;5.70;99.90
23291;DHT22;11814;44.686;10.842;2023-03-02T06:49:08;5.70;99.90
23291;DHT22;11814;44.686;10.842;2023-03-02T06:51:34;5.80;99.90
23291;DHT22;11814;44.686;10.842;2023-03-02T06:54:00;5.80;99.90
23291;DHT22;11814;44.686;10.842;2023-03-02T06:56:26;5.80;99.90
23291;DHT22;11814;44.686;10.842;2023-03-02T06:58:52;5.80;99.90
23291;DHT22;11814;44.686;10.842;2023-03-02T07:01:18;5.80;99.90
23291;DHT22;11814;44.686;10.842;2023-03-02T07:03:44;5.90;99.90
23291;DHT22;11814;44.686;10.842;2023-03-02T07:06:11;5.90;99.90
23291;DHT22;11814;44.686;10.842;2023-03-02T07:08:38;5.90;99.90
23291;DHT22;11814;44.686;10.842;2023-03-02T07:11:05;6.00;99.90
23291;DHT22;11814;44.686;10.842;2023-03-02T07:13:31;6.00;99.90
23291;DHT22;11814;44.686;10.842;2023-03-02T07:15:57;6.00;99.90
23291;DHT22;11814;44.686;10.842;2023-03-02T07:18:22;6.00;99.90
23291;DHT22;11814;44.686;10.842;2023-03-02T07:20:48;6.10;99.90
23291;DHT22;11814;44.686;10.842;2023-03-02T07:23:14;6.10;99.90
23291;DHT22;11814;44.686;10.842;2023-03-02T07:25:40;6.20;99.90
23291;DHT22;11814;44.686;10.842;2023-03-02T07:28:05;6.20;99.90
23291;DHT22;11814;44.686;10.842;2023-03-02T07:30:31;6.20;99.90
23291;DHT22;11814;44.686;10.842;2023-03-02T07:32:57;6.30;99.90
23291;DHT22;11814;44.686;10.842;2023-03-02T07:35:22;6.30;99.90
23291;DHT22;11814;44.686;10.842;2023-03-02T07:37:50;6.40;99.90
23291;DHT22;11814;44.686;10.842;2023-03-02T07:40:16;6.40;99.90
23291;DHT22;11814;44.686;10.842;2023-03-02T07:42:42;6.40;99.90
23291;DHT22;11814;44.686;10.842;2023-03-02T07:45:09;6.40;99.90
23291;DHT22;11814;44.686;10.842;2023-03-02T07:47:35;6.40;99.90
23291;DHT22;11814;44.686;10.842;2023-03-02T07:50:02;6.40;99.90
23291;DHT22;11814;44.686;10.842;2023-03-02T07:52:29;6.40;99.90
23291;DHT22;11814;44.686;10.842;2023-03-02T07:54:55;6.40;99.90
23291;DHT22;11814;44.686;10.842;2023-03-02T07:57:21;6.50;99.90
23291;DHT22;11814;44.686;10.842;2023-03-02T07:59:47;6.50;99.90
23291;DHT22;11814;44.686;10.842;2023-03-02T08:02:17;6.50;99.90
23291;DHT22;11814;44.686;10.842;2023-03-02T08:04:45;6.50;99.90
23291;DHT22;11814;44.686;10.842;2023-03-02T08:07:10;6.60;99.90
23291;DHT22;11814;44.686;10.842;2023-03-02T08:09:37;6.60;99.90
23291;DHT22;11814;44.686;10.842;2023-03-02T08:12:04;6.60;99.90
23291;DHT22;11814;44.686;10.842;2023-03-02T08:14:30;6.70;99.90
23291;DHT22;11814;44.686;10.842;2023-03-02T08:16:56;6.70;99.90
23291;DHT22;11814;44.686;10.842;2023-03-02T08:19:21;6.80;99.90
23291;DHT22;11814;44.686;10.842;2023-03-02T08:21:47;6.80;99.90
23291;DHT22;11814;44.686;10.842;2023-03-02T08:24:13;6.80;99.90
23291;DHT22;11814;44.686;10.842;2023-03-02T08:26:38;6.80;99.90
23291;DHT22;11814;44.686;10.842;2023-03-02T08:29:05;6.80;99.90
23291;DHT22;11814;44.686;10.842;2023-03-02T08:31:31;6.80;99.90
23291;DHT22;11814;44.686;10.842;2023-03-02T08:33:57;6.80;99.90
23291;DHT22;11814;44.686;10.842;2023-03-02T08:36:26;6.80;99.90
23291;DHT22;11814;44.686;10.842;2023-03-02T08:38:52;6.90;99.90
23291;DHT22;11814;44.686;10.842;2023-03-02T08:41:20;6.90;99.90
23291;DHT22;11814;44.686;10.842;2023-03-02T08:43:47;6.90;99.90
23291;DHT22;11814;44.686;10.842;2023-03-02T08:46:15;6.90;99.90
23291;DHT22;11814;44.686;10.842;2023-03-02T08:48:42;7.00;99.90
23291;DHT22;11814;44.686;10.842;2023-03-02T08:51:19;7.00;99.90
23291;DHT22;11814;44.686;10.842;2023-03-02T08:53:47;7.00;99.90
23291;DHT22;11814;44.686;10.842;2023-03-02T08:56:35;7.00;99.90
23291;DHT22;11814;44.686;10.842;2023-03-02T08:59:05;7.10;99.90
23291;DHT22;11814;44.686;10.842;2023-03-02T09:01:33;7.10;99.90
23291;DHT22;11814;44.686;10.842;2023-03-02T09:03:59;7.10;99.90
23291;DHT22;11814;44.686;10.842;2023-03-02T09:06:27;7.20;99.90
23291;DHT22;11814;44.686;10.842;2023-03-02T09:08:54;7.20;99.90
23291;DHT22;11814;44.686;10.842;2023-03-02T09:11:20;7.30;99.90
23291;DHT22;11814;44.686;10.842;2023-03-02T09:13:46;7.30;99.90
23291;DHT22;11814;44.686;10.842;2023-03-02T09:16:13;7.30;99.90
23291;DHT22;11814;44.686;10.842;2023-03-02T09:18:39;7.40;99.90
23291;DHT22;11814;44.686;10.842;2023-03-02T09:21:05;7.50;99.90
23291;DHT22;11814;44.686;10.842;2023-03-02T09:23:32;7.50;99.90
23291;DHT22;11814;44.686;10.842;2023-03-02T09:25:58;7.60;99.90
23291;DHT22;11814;44.686;10.842;2023-03-02T09:28:23;7.60;99.90
23291;DHT22;11814;44.686;10.842;2023-03-02T09:30:52;7.60;99.90
23291;DHT22;11814;44.686;10.842;2023-03-02T09:33:19;7.70;99.90
23291;DHT22;11814;44.686;10.842;2023-03-02T09:35:45;7.70;99.90
23291;DHT22;11814;44.686;10.842;2023-03-02T09:38:12;7.80;99.90
23291;DHT22;11814;44.686;10.842;2023-03-02T09:46:49;7.90;99.90
23291;DHT22;11814;44.686;10.842;2023-03-02T09:54:47;8.00;99.90
23291;DHT22;11814;44.686;10.842;2023-03-02T09:57:24;8.20;99.90
23291;DHT22;11814;44.686;10.842;2023-03-02T09:59:58;8.20;99.90
23291;DHT22;11814;44.686;10.842;2023-03-02T10:02:30;8.30;99.90
23291;DHT22;11814;44.686;10.842;2023-03-02T10:04:58;8.30;99.90
23291;DHT22;11814;44.686;10.842;2023-03-02T10:07:36;8.50;99.90
23291;DHT22;11814;44.686;10.842;2023-03-02T10:10:39;8.60;99.90
23291;DHT22;11814;44.686;10.842;2023-03-02T10:24:07;9.00;99.90
23291;DHT22;11814;44.686;10.842;2023-03-02T10:29:32;9.00;99.90
23291;DHT22;11814;44.686;10.842;2023-03-02T10:34:37;9.10;99.90
23291;DHT22;11814;44.686;10.842;2023-03-02T10:37:12;9.10;99.90
23291;DHT22;11814;44.686;10.842;2023-03-02T10:39:38;9.20;99.90
23291;DHT22;11814;44.686;10.842;2023-03-02T10:42:06;9.20;99.90
23291;DHT22;11814;44.686;10.842;2023-03-02T10:44:38;9.20;99.90
23291;DHT22;11814;44.686;10.842;2023-03-02T10:47:06;9.20;99.90
23291;DHT22;11814;44.686;10.842;2023-03-02T10:49:40;9.20;99.90
23291;DHT22;11814;44.686;10.842;2023-03-02T10:52:17;9.20;99.90
23291;DHT22;11814;44.686;10.842;2023-03-02T10:54:44;9.30;99.90
23291;DHT22;11814;44.686;10.842;2023-03-02T10:57:38;9.30;99.90
23291;DHT22;11814;44.686;10.842;2023-03-02T11:02:57;9.30;99.90
23291;DHT22;11814;44.686;10.842;2023-03-02T11:08:03;9.20;99.90
23291;DHT22;11814;44.686;10.842;2023-03-02T11:10:40;9.20;99.90
23291;DHT22;11814;44.686;10.842;2023-03-02T11:15:50;9.20;99.90
23291;DHT22;11814;44.686;10.842;2023-03-02T11:20:47;9.20;99.90
23291;DHT22;11814;44.686;10.842;2023-03-02T11:25:53;9.20;99.90
23291;DHT22;11814;44.686;10.842;2023-03-02T11:31:02;9.20;99.90
23291;DHT22;11814;44.686;10.842;2023-03-02T11:33:36;9.20;99.90
23291;DHT22;11814;44.686;10.842;2023-03-02T11:36:28;9.30;99.90
23291;DHT22;11814;44.686;10.842;2023-03-02T11:38:59;9.30;99.90
23291;DHT22;11814;44.686;10.842;2023-03-02T11:41:27;9.30;99.90
23291;DHT22;11814;44.686;10.842;2023-03-02T11:43:55;9.30;99.90
23291;DHT22;11814;44.686;10.842;2023-03-02T11:46:26;9.30;99.90
23291;DHT22;11814;44.686;10.842;2023-03-02T11:48:54;9.30;99.90
23291;DHT22;11814;44.686;10.842;2023-03-02T11:51:45;9.30;99.90
23291;DHT22;11814;44.686;10.842;2023-03-02T11:56:58;9.30;99.90
23291;DHT22;11814;44.686;10.842;2023-03-02T11:59:26;9.30;99.90
23291;DHT22;11814;44.686;10.842;2023-03-02T12:01:53;9.30;99.90
23291;DHT22;11814;44.686;10.842;2023-03-02T12:04:38;9.30;99.90
23291;DHT22;11814;44.686;10.842;2023-03-02T12:07:25;9.30;99.90
23291;DHT22;11814;44.686;10.842;2023-03-02T12:10:07;9.40;99.90
23291;DHT22;11814;44.686;10.842;2023-03-02T12:12:39;9.40;99.90
23291;DHT22;11814;44.686;10.842;2023-03-02T12:15:43;9.40;99.90
23291;DHT22;11814;44.686;10.842;2023-03-02T12:23:30;9.40;99.90
23291;DHT22;11814;44.686;10.842;2023-03-02T12:26:27;9.40;99.90
23291;DHT22;11814;44.686;10.842;2023-03-02T12:28:58;9.40;99.90
23291;DHT22;11814;44.686;10.842;2023-03-02T12:31:25;9.40;99.90
23291;DHT22;11814;44.686;10.842;2023-03-02T12:33:52;9.40;99.90
23291;DHT22;11814;44.686;10.842;2023-03-02T12:39:08;9.50;99.90
23291;DHT22;11814;44.686;10.842;2023-03-02T12:45:26;9.50;99.90
23291;DHT22;11814;44.686;10.842;2023-03-02T12:47:31;9.50;99.90
23291;DHT22;11814;44.686;10.842;2023-03-02T12:50:20;9.40;99.90
23291;DHT22;11814;44.686;10.842;2023-03-02T12:52:59;9.50;99.90
23291;DHT22;11814;44.686;10.842;2023-03-02T12:55:25;9.40;99.90
23291;DHT22;11814;44.686;10.842;2023-03-02T12:57:53;9.40;99.90
23291;DHT22;11814;44.686;10.842;2023-03-02T13:00:22;9.40;99.90
23291;DHT22;11814;44.686;10.842;2023-03-02T13:02:51;9.40;99.90
23291;DHT22;11814;44.686;10.842;2023-03-02T13:05:23;9.40;99.90
23291;DHT22;11814;44.686;10.842;2023-03-02T13:07:53;9.40;99.90
23291;DHT22;11814;44.686;10.842;2023-03-02T13:12:47;9.50;99.90
23291;DHT22;11814;44.686;10.842;2023-03-02T13:15:15;9.50;99.90
23291;DHT22;11814;44.686;10.842;2023-03-02T13:17:43;9.40;99.90
23291;DHT22;11814;44.686;10.842;2023-03-02T13:20:12;9.40;99.90
23291;DHT22;11814;44.686;10.842;2023-03-02T13:22:39;9.50;99.90
23291;DHT22;11814;44.686;10.842;2023-03-02T13:25:06;9.40;99.90
23291;DHT22;11814;44.686;10.842;2023-03-02T13:27:34;9.40;99.90
23291;DHT22;11814;44.686;10.842;2023-03-02T13:30:20;9.40;99.90
23291;DHT22;11814;44.686;10.842;2023-03-02T13:32:46;9.40;99.90
23291;DHT22;11814;44.686;10.842;2023-03-02T13:35:24;9.40;99.90
23291;DHT22;11814;44.686;10.842;2023-03-02T13:38:19;9.40;99.90
23291;DHT22;11814;44.686;10.842;2023-03-02T13:40:48;9.40;99.90
23291;DHT22;11814;44.686;10.842;2023-03-02T13:43:38;9.50;99.90
23291;DHT22;11814;44.686;10.842;2023-03-02T13:48:36;9.50;99.90
23291;DHT22;11814;44.686;10.842;2023-03-02T13:51:18;9.50;99.90
23291;DHT22;11814;44.686;10.842;2023-03-02T13:53:54;9.50;99.90
23291;DHT22;11814;44.686;10.842;2023-03-02T13:56:26;9.60;99.90
23291;DHT22;11814;44.686;10.842;2023-03-02T13:58:52;9.60;99.90
23291;DHT22;11814;44.686;10.842;2023-03-02T14:01:18;9.60;99.90
23291;DHT22;11814;44.686;10.842;2023-03-02T14:03:44;9.60;99.90
23291;DHT22;11814;44.686;10.842;2023-03-02T14:06:09;9.60;99.90
23291;DHT22;11814;44.686;10.842;2023-03-02T14:08:35;9.60;99.90
23291;DHT22;11814;44.686;10.842;2023-03-02T14:11:01;9.50;99.90
23291;DHT22;11814;44.686;10.842;2023-03-02T14:13:40;9.50;99.90
23291;DHT22;11814;44.686;10.842;2023-03-02T14:16:13;9.40;99.90
23291;DHT22;11814;44.686;10.842;2023-03-02T14:18:45;9.40;99.90
23291;DHT22;11814;44.686;10.842;2023-03-02T14:21:19;9.40;99.90
23291;DHT22;11814;44.686;10.842;2023-03-02T14:23:45;9.40;99.90
23291;DHT22;11814;44.686;10.842;2023-03-02T14:28:48;9.30;99.90
23291;DHT22;11814;44.686;10.842;2023-03-02T14:31:14;9.30;99.90
23291;DHT22;11814;44.686;10.842;2023-03-02T14:33:40;9.40;99.90
23291;DHT22;11814;44.686;10.842;2023-03-02T14:36:09;9.40;99.90
23291;DHT22;11814;44.686;10.842;2023-03-02T14:38:37;9.40;99.90
23291;DHT22;11814;44.686;10.842;2023-03-02T14:41:03;9.30;99.90
23291;DHT22;11814;44.686;10.842;2023-03-02T14:43:29;9.40;99.90
23291;DHT22;11814;44.686;10.842;2023-03-02T14:45:55;9.30;99.90
23291;DHT22;11814;44.686;10.842;2023-03-02T14:48:21;9.40;99.90
23291;DHT22;11814;44.686;10.842;2023-03-02T14:50:48;9.30;99.90
23291;DHT22;11814;44.686;10.842;2023-03-02T14:53:28;9.30;99.90
23291;DHT22;11814;44.686;10.842;2023-03-02T14:55:57;9.30;99.90
23291;DHT22;11814;44.686;10.842;2023-03-02T14:58:32;9.30;99.90
23291;DHT22;11814;44.686;10.842;2023-03-02T15:00:58;9.30;99.90
23291;DHT22;11814;44.686;10.842;2023-03-02T15:03:24;9.30;99.90
23291;DHT22;11814;44.686;10.842;2023-03-02T15:05:52;9.30;99.90
23291;DHT22;11814;44.686;10.842;2023-03-02T15:08:19;9.30;99.90
23291;DHT22;11814;44.686;10.842;2023-03-02T15:10:46;9.30;99.90
23291;DHT22;11814;44.686;10.842;2023-03-02T15:13:13;9.30;99.90
23291;DHT22;11814;44.686;10.842;2023-03-02T15:15:41;9.30;99.90
23291;DHT22;11814;44.686;10.842;2023-03-02T15:18:07;9.30;99.90
23291;DHT22;11814;44.686;10.842;2023-03-02T15:20:33;9.30;99.90
23291;DHT22;11814;44.686;10.842;2023-03-02T15:22:59;9.30;99.90
23291;DHT22;11814;44.686;10.842;2023-03-02T15:25:25;9.30;99.90
23291;DHT22;11814;44.686;10.842;2023-03-02T15:27:53;9.40;99.90
23291;DHT22;11814;44.686;10.842;2023-03-02T15:30:19;9.30;99.90
23291;DHT22;11814;44.686;10.842;2023-03-02T15:32:44;9.30;99.90
23291;DHT22;11814;44.686;10.842;2023-03-02T15:35:10;9.40;99.90
23291;DHT22;11814;44.686;10.842;2023-03-02T15:37:37;9.40;99.90
23291;DHT22;11814;44.686;10.842;2023-03-02T15:40:03;9.40;99.90
23291;DHT22;11814;44.686;10.842;2023-03-02T15:42:29;9.40;99.90
23291;DHT22;11814;44.686;10.842;2023-03-02T15:44:55;9.40;99.90
23291;DHT22;11814;44.686;10.842;2023-03-02T15:47:21;9.40;99.90
23291;DHT22;11814;44.686;10.842;2023-03-02T15:49:47;9.40;99.90
23291;DHT22;11814;44.686;10.842;2023-03-02T15:52:13;9.30;99.90
23291;DHT22;11814;44.686;10.842;2023-03-02T15:54:39;9.30;99.90
23291;DHT22;11814;44.686;10.842;2023-03-02T15:57:06;9.30;99.90
23291;DHT22;11814;44.686;10.842;2023-03-02T15:59:32;9.30;99.90
23291;DHT22;11814;44.686;10.842;2023-03-02T16:01:58;9.20;99.90
23291;DHT22;11814;44.686;10.842;2023-03-02T16:04:29;9.20;99.90
23291;DHT22;11814;44.686;10.842;2023-03-02T16:06:55;9.20;99.90
23291;DHT22;11814;44.686;10.842;2023-03-02T16:09:22;9.20;99.90
23291;DHT22;11814;44.686;10.842;2023-03-02T16:11:49;9.20;99.90
23291;DHT22;11814;44.686;10.842;2023-03-02T16:14:15;9.20;99.90
23291;DHT22;11814;44.686;10.842;2023-03-02T16:16:42;9.20;99.90
23291;DHT22;11814;44.686;10.842;2023-03-02T16:19:11;9.20;99.90
23291;DHT22;11814;44.686;10.842;2023-03-02T16:21:36;9.20;99.90
23291;DHT22;11814;44.686;10.842;2023-03-02T16:24:03;9.30;99.90
23291;DHT22;11814;44.686;10.842;2023-03-02T16:26:30;9.20;99.90
23291;DHT22;11814;44.686;10.842;2023-03-02T16:28:56;9.20;99.90
23291;DHT22;11814;44.686;10.842;2023-03-02T16:31:23;9.20;99.90
23291;DHT22;11814;44.686;10.842;2023-03-02T16:33:54;9.20;99.90
23291;DHT22;11814;44.686;10.842;2023-03-02T16:36:21;9.20;99.90
23291;DHT22;11814;44.686;10.842;2023-03-02T16:38:46;9.20;99.90
23291;DHT22;11814;44.686;10.842;2023-03-02T16:41:16;9.20;99.90
23291;DHT22;11814;44.686;10.842;2023-03-02T16:43:51;9.20;99.90
23291;DHT22;11814;44.686;10.842;2023-03-02T16:46:18;9.10;99.90
23291;DHT22;11814;44.686;10.842;2023-03-02T16:48:44;9.10;99.90
23291;DHT22;11814;44.686;10.842;2023-03-02T16:51:10;9.10;99.90